Time;durP1;ratioP1;P1;durP2;ratioP2;P2;SDS_P1;SDS_P2;PMS_P1;PMS_P2;Temp;Humidity;BMP_temperature;BMP_pressure;BME280_temperature;BME280_humidity;BME280_pressure;Samples;Min_cycle;Max_cycle;Signal;HPM_P1;HPM_P2
2021/12/01 00:00:26;;;;;;;;;;;1.90;99.90;;;;;;5036933;28;19993;-86
2021/12/01 00:02:54;;;;;;;;;;;1.90;99.90;;;;;;5028195;28;19933;-87
2021/12/01 00:05:21;;;;;;;;;;;1.90;99.90;;;;;;5033491;28;20008;-88
2021/12/01 00:07:49;;;;;;;;;;;1.90;99.90;;;;;;5058908;28;19952;-87
2021/12/01 00:10:16;;;;;;;;;;;1.90;99.90;;;;;;5033896;28;19929;-88
2021/12/01 00:12:43;;;;;;;;;;;1.90;99.90;;;;;;5032971;28;19960;-83
2021/12/01 00:15:11;;;;;;;;;;;2.00;99.90;;;;;;5031862;28;19914;-86
2021/12/01 00:17:39;;;;;;;;;;;1.90;99.90;;;;;;5035534;28;20032;-89
2021/12/01 00:20:09;;;;;;;;;;;1.90;99.90;;;;;;5029351;28;19925;-87
2021/12/01 00:22:36;;;;;;;;;;;2.00;99.90;;;;;;5095066;23;19952;-81
2021/12/01 00:25:05;;;;;;;;;;;2.00;99.90;;;;;;5038327;28;20391;-81
2021/12/01 00:27:32;;;;;;;;;;;2.00;99.90;;;;;;5041259;28;19987;-81
2021/12/01 00:29:59;;;;;;;;;;;2.00;99.90;;;;;;5028332;28;19957;-81
2021/12/01 00:32:26;;;;;;;;;;;2.00;99.90;;;;;;5005885;28;20581;-81
2021/12/01 00:34:54;;;;;;;;;;;2.00;99.90;;;;;;5049639;28;19933;-80
2021/12/01 00:37:21;;;;;;;;;;;2.00;99.90;;;;;;5026958;28;20358;-81
2021/12/01 00:39:48;;;;;;;;;;;2.00;99.90;;;;;;5027142;28;19934;-81
2021/12/01 00:42:18;;;;;;;;;;;2.00;99.90;;;;;;5028162;28;19925;-80
2021/12/01 00:44:47;;;;;;;;;;;2.00;99.90;;;;;;5022029;28;19931;-81
2021/12/01 00:47:15;;;;;;;;;;;2.00;99.90;;;;;;5026920;28;19995;-80
2021/12/01 00:49:42;;;;;;;;;;;2.00;99.90;;;;;;5023137;28;20454;-80
2021/12/01 00:52:14;;;;;;;;;;;2.00;99.90;;;;;;5022543;28;20386;-81
2021/12/01 00:54:41;;;;;;;;;;;2.00;99.90;;;;;;5022789;28;20386;-80
2021/12/01 00:57:09;;;;;;;;;;;2.00;99.90;;;;;;5020002;28;20423;-81
2021/12/01 00:59:37;;;;;;;;;;;2.00;99.90;;;;;;5019306;28;19925;-81
2021/12/01 01:02:07;;;;;;;;;;;2.00;99.90;;;;;;5015297;28;19925;-81
2021/12/01 01:04:34;;;;;;;;;;;2.00;99.90;;;;;;5029348;28;19925;-80
2021/12/01 01:07:02;;;;;;;;;;;2.00;99.90;;;;;;5031262;28;19929;-81
2021/12/01 01:09:32;;;;;;;;;;;2.00;99.90;;;;;;5048542;28;20529;-80
2021/12/01 01:17:36;;;;;;;;;;;2.10;99.90;;;;;;5022585;28;19921;-81
2021/12/01 01:20:03;;;;;;;;;;;2.00;99.90;;;;;;5018976;28;20345;-80
2021/12/01 01:22:30;;;;;;;;;;;2.10;99.90;;;;;;5025671;28;20011;-81
2021/12/01 01:24:59;;;;;;;;;;;2.00;99.90;;;;;;5020007;28;19999;-80
2021/12/01 01:27:26;;;;;;;;;;;2.10;99.90;;;;;;5021616;28;20000;-80
2021/12/01 01:29:53;;;;;;;;;;;2.10;99.90;;;;;;5014015;28;19926;-80
2021/12/01 01:32:20;;;;;;;;;;;2.10;99.90;;;;;;5014643;28;19948;-80
2021/12/01 01:34:47;;;;;;;;;;;2.10;99.90;;;;;;5017768;28;19936;-81
2021/12/01 01:37:14;;;;;;;;;;;2.10;99.90;;;;;;5019613;28;20028;-80
2021/12/01 01:39:41;;;;;;;;;;;2.10;99.90;;;;;;5026804;28;20374;-80
2021/12/01 01:42:09;;;;;;;;;;;2.10;99.90;;;;;;5028333;28;19928;-80
2021/12/01 01:44:37;;;;;;;;;;;2.10;99.90;;;;;;5021799;28;19925;-80
2021/12/01 01:47:04;;;;;;;;;;;2.10;99.90;;;;;;5020130;28;19968;-81
2021/12/01 01:49:43;;;;;;;;;;;2.10;99.90;;;;;;5027710;28;19929;-80
2021/12/01 01:52:10;;;;;;;;;;;2.10;99.90;;;;;;5025551;28;19933;-80
2021/12/01 01:54:37;;;;;;;;;;;2.10;99.90;;;;;;5025051;28;19967;-80
2021/12/01 01:57:05;;;;;;;;;;;2.10;99.90;;;;;;5022014;28;19931;-80
2021/12/01 01:59:34;;;;;;;;;;;2.10;99.90;;;;;;5047894;28;19925;-81
2021/12/01 02:02:02;;;;;;;;;;;2.10;99.90;;;;;;5022787;28;19925;-80
2021/12/01 02:04:33;;;;;;;;;;;2.10;99.90;;;;;;5014341;28;20059;-81
2021/12/01 02:07:00;;;;;;;;;;;2.10;99.90;;;;;;5014740;28;20403;-80
2021/12/01 02:09:27;;;;;;;;;;;2.10;99.90;;;;;;5026166;28;19962;-80
2021/12/01 02:11:56;;;;;;;;;;;2.20;99.90;;;;;;5025399;28;19925;-80
2021/12/01 02:14:23;;;;;;;;;;;2.20;99.90;;;;;;5043582;28;20286;-80
2021/12/01 02:16:52;;;;;;;;;;;2.20;99.90;;;;;;5022157;28;19935;-80
2021/12/01 02:19:19;;;;;;;;;;;2.20;99.90;;;;;;5023894;28;20717;-80
2021/12/01 02:21:47;;;;;;;;;;;2.20;99.90;;;;;;5023772;28;19932;-80
2021/12/01 02:24:15;;;;;;;;;;;2.20;99.90;;;;;;5022321;28;19965;-80
2021/12/01 02:26:44;;;;;;;;;;;2.20;99.90;;;;;;5023762;28;19936;-80
2021/12/01 02:29:12;;;;;;;;;;;2.20;99.90;;;;;;5024993;28;19929;-80
2021/12/01 02:31:39;;;;;;;;;;;2.20;99.90;;;;;;5025942;28;19929;-80
2021/12/01 02:34:07;;;;;;;;;;;2.20;99.90;;;;;;5025388;28;19929;-80
2021/12/01 02:36:34;;;;;;;;;;;2.20;99.90;;;;;;5019431;28;19991;-80
2021/12/01 02:39:03;;;;;;;;;;;2.20;99.90;;;;;;5027958;28;19929;-80
2021/12/01 02:41:33;;;;;;;;;;;2.20;99.90;;;;;;5027483;28;19929;-80
2021/12/01 02:44:01;;;;;;;;;;;2.20;99.90;;;;;;5017532;28;19926;-80
2021/12/01 02:46:28;;;;;;;;;;;2.20;99.90;;;;;;5014910;28;20277;-80
2021/12/01 02:48:56;;;;;;;;;;;2.20;99.90;;;;;;5024065;28;19929;-80
2021/12/01 02:51:27;;;;;;;;;;;2.30;99.90;;;;;;5020755;28;20292;-80
2021/12/01 02:53:54;;;;;;;;;;;2.30;99.90;;;;;;5018828;28;19925;-81
2021/12/01 02:56:31;;;;;;;;;;;2.30;99.90;;;;;;5018771;28;19929;-81
2021/12/01 02:58:59;;;;;;;;;;;2.30;99.90;;;;;;5047553;28;20028;-80
2021/12/01 03:01:26;;;;;;;;;;;2.30;99.90;;;;;;5023136;28;20379;-80
2021/12/01 03:03:53;;;;;;;;;;;2.30;99.90;;;;;;5024225;28;19925;-81
2021/12/01 03:06:22;;;;;;;;;;;2.30;99.90;;;;;;5018623;28;19932;-80
2021/12/01 03:08:53;;;;;;;;;;;2.30;99.90;;;;;;5022791;28;19929;-80
2021/12/01 03:11:22;;;;;;;;;;;2.30;99.90;;;;;;5012230;28;19932;-80
2021/12/01 03:13:50;;;;;;;;;;;2.30;99.90;;;;;;5023953;28;19940;-80
2021/12/01 03:16:17;;;;;;;;;;;2.30;99.90;;;;;;5022914;28;19975;-81
2021/12/01 03:18:44;;;;;;;;;;;2.30;99.90;;;;;;5025377;28;19925;-80
2021/12/01 03:21:12;;;;;;;;;;;2.30;99.90;;;;;;5020895;28;19933;-81
2021/12/01 03:23:39;;;;;;;;;;;2.40;99.90;;;;;;5013078;28;20339;-80
2021/12/01 03:26:07;;;;;;;;;;;2.30;99.90;;;;;;5043685;28;19926;-80
2021/12/01 03:28:34;;;;;;;;;;;2.30;99.90;;;;;;5021751;28;20379;-80
2021/12/01 03:31:05;;;;;;;;;;;2.40;99.90;;;;;;5016077;28;19929;-80
2021/12/01 03:33:32;;;;;;;;;;;2.40;99.90;;;;;;5019258;28;19925;-80
2021/12/01 03:35:59;;;;;;;;;;;2.40;99.90;;;;;;5020592;28;19926;-81
2021/12/01 03:38:27;;;;;;;;;;;2.40;99.90;;;;;;5016175;28;20025;-81
2021/12/01 03:40:58;;;;;;;;;;;2.40;99.90;;;;;;5020859;28;19925;-81
2021/12/01 03:43:25;;;;;;;;;;;2.40;99.90;;;;;;5021312;28;19932;-81
2021/12/01 03:45:52;;;;;;;;;;;2.40;99.90;;;;;;5019822;28;19979;-81
2021/12/01 03:48:21;;;;;;;;;;;2.40;99.90;;;;;;5016138;28;19925;-80
2021/12/01 03:50:49;;;;;;;;;;;2.40;99.90;;;;;;5021829;28;19933;-80
2021/12/01 03:53:17;;;;;;;;;;;2.40;99.90;;;;;;5025162;28;19925;-80
2021/12/01 03:55:44;;;;;;;;;;;2.40;99.90;;;;;;5016528;28;19964;-80
2021/12/01 03:58:11;;;;;;;;;;;2.40;99.90;;;;;;5019542;28;19929;-81
2021/12/01 04:00:38;;;;;;;;;;;2.40;99.90;;;;;;5018817;28;20391;-81
2021/12/01 04:03:05;;;;;;;;;;;2.40;99.90;;;;;;5029354;28;20451;-81
2021/12/01 04:05:33;;;;;;;;;;;2.50;99.90;;;;;;5026083;28;20426;-81
2021/12/01 04:08:02;;;;;;;;;;;2.40;99.90;;;;;;5053639;28;19929;-80
2021/12/01 04:10:29;;;;;;;;;;;2.50;99.90;;;;;;5016103;28;20374;-81
2021/12/01 04:12:56;;;;;;;;;;;2.40;99.90;;;;;;5016691;28;20044;-81
2021/12/01 04:15:23;;;;;;;;;;;2.50;99.90;;;;;;5022695;28;19929;-81
2021/12/01 04:17:51;;;;;;;;;;;2.50;99.90;;;;;;5044835;28;19925;-81
2021/12/01 04:20:18;;;;;;;;;;;2.50;99.90;;;;;;5041201;28;19929;-80
2021/12/01 04:22:48;;;;;;;;;;;2.50;99.90;;;;;;5023201;28;19925;-80
2021/12/01 04:25:15;;;;;;;;;;;2.50;99.90;;;;;;5026365;28;19926;-80
2021/12/01 04:27:42;;;;;;;;;;;2.50;99.90;;;;;;5027982;28;20389;-81
2021/12/01 04:30:10;;;;;;;;;;;2.50;99.90;;;;;;5021927;28;19932;-81
2021/12/01 04:32:37;;;;;;;;;;;2.50;99.90;;;;;;5020231;28;20384;-81
2021/12/01 04:35:06;;;;;;;;;;;2.50;99.90;;;;;;5021159;28;20394;-81
2021/12/01 04:37:34;;;;;;;;;;;2.50;99.90;;;;;;5024761;28;19983;-81
2021/12/01 04:40:03;;;;;;;;;;;2.50;99.90;;;;;;5025550;28;19944;-81
2021/12/01 04:42:30;;;;;;;;;;;2.50;99.90;;;;;;5028081;28;19959;-81
2021/12/01 04:44:57;;;;;;;;;;;2.50;99.90;;;;;;5021902;28;19936;-80
2021/12/01 04:47:28;;;;;;;;;;;2.60;99.90;;;;;;5053748;28;19925;-81
2021/12/01 04:49:56;;;;;;;;;;;2.50;99.90;;;;;;5057310;28;19932;-81
2021/12/01 04:52:23;;;;;;;;;;;2.50;99.90;;;;;;5020581;28;19933;-81
2021/12/01 04:54:50;;;;;;;;;;;2.60;99.90;;;;;;5032110;28;20406;-81
2021/12/01 04:57:21;;;;;;;;;;;2.60;99.90;;;;;;5027843;28;19932;-81
2021/12/01 04:59:48;;;;;;;;;;;2.50;99.90;;;;;;5025263;28;19931;-81
2021/12/01 05:02:15;;;;;;;;;;;2.60;99.90;;;;;;5032974;28;19926;-81
2021/12/01 05:04:43;;;;;;;;;;;2.60;99.90;;;;;;5032467;28;19929;-80
2021/12/01 05:07:13;;;;;;;;;;;2.60;99.90;;;;;;5024693;28;20425;-81
2021/12/01 05:09:43;;;;;;;;;;;2.60;99.90;;;;;;5027887;28;19929;-80
2021/12/01 05:12:13;;;;;;;;;;;2.60;99.90;;;;;;5021791;28;19932;-80
2021/12/01 05:14:44;;;;;;;;;;;2.60;99.90;;;;;;5019559;28;20029;-81
2021/12/01 05:17:14;;;;;;;;;;;2.60;99.90;;;;;;5029030;28;19952;-81
2021/12/01 05:19:42;;;;;;;;;;;2.60;99.90;;;;;;5027499;28;19929;-81
2021/12/01 05:22:09;;;;;;;;;;;2.60;99.90;;;;;;5023990;28;19925;-81
2021/12/01 05:24:36;;;;;;;;;;;2.60;99.90;;;;;;5030299;28;19975;-80
2021/12/01 05:27:04;;;;;;;;;;;2.60;99.90;;;;;;5028755;28;19971;-80
2021/12/01 05:29:31;;;;;;;;;;;2.60;99.90;;;;;;5032127;28;19987;-81
2021/12/01 05:32:00;;;;;;;;;;;2.60;99.90;;;;;;5027967;28;19980;-81
2021/12/01 05:34:28;;;;;;;;;;;2.60;99.90;;;;;;5025260;28;19947;-81
2021/12/01 05:37:00;;;;;;;;;;;2.70;99.90;;;;;;5024209;28;19925;-81
2021/12/01 05:39:32;;;;;;;;;;;2.60;99.90;;;;;;5026786;28;20023;-81
2021/12/01 05:41:59;;;;;;;;;;;2.70;99.90;;;;;;5030337;28;20330;-81
2021/12/01 05:44:29;;;;;;;;;;;2.70;99.90;;;;;;5031733;28;19925;-81
2021/12/01 05:46:56;;;;;;;;;;;2.70;99.90;;;;;;5026139;28;19948;-81
2021/12/01 05:49:25;;;;;;;;;;;2.70;99.90;;;;;;5026952;28;19925;-80
2021/12/01 05:51:52;;;;;;;;;;;2.80;99.90;;;;;;5023809;28;19991;-81
2021/12/01 05:54:20;;;;;;;;;;;2.70;99.90;;;;;;5018886;28;19925;-80
2021/12/01 05:56:50;;;;;;;;;;;2.70;99.90;;;;;;5021284;28;19995;-81
2021/12/01 05:59:17;;;;;;;;;;;2.70;99.90;;;;;;5031116;28;19924;-80
2021/12/01 06:01:44;;;;;;;;;;;2.70;99.90;;;;;;5020709;28;19933;-81
2021/12/01 06:04:11;;;;;;;;;;;2.70;99.90;;;;;;5024228;28;19985;-81
2021/12/01 06:06:43;;;;;;;;;;;2.70;99.90;;;;;;5027724;28;20020;-81
2021/12/01 06:09:11;;;;;;;;;;;2.70;99.90;;;;;;5019496;28;20012;-81
2021/12/01 06:11:38;;;;;;;;;;;2.70;99.90;;;;;;5019118;28;20376;-81
2021/12/01 06:14:08;;;;;;;;;;;2.80;99.90;;;;;;5056176;28;20402;-81
2021/12/01 06:16:35;;;;;;;;;;;2.80;99.90;;;;;;5032389;28;19925;-80
2021/12/01 06:19:03;;;;;;;;;;;2.80;99.90;;;;;;5032060;28;19925;-81
2021/12/01 06:21:30;;;;;;;;;;;2.80;99.90;;;;;;5032241;28;19925;-80
2021/12/01 06:24:00;;;;;;;;;;;2.80;99.90;;;;;;5031871;28;19994;-81
2021/12/01 06:26:27;;;;;;;;;;;2.70;99.90;;;;;;5027489;28;19925;-81
2021/12/01 06:28:56;;;;;;;;;;;2.70;99.90;;;;;;5029192;28;20011;-81
2021/12/01 06:31:24;;;;;;;;;;;2.70;99.90;;;;;;5025892;28;19936;-81
2021/12/01 06:33:51;;;;;;;;;;;2.80;99.90;;;;;;5012550;28;19930;-81
2021/12/01 06:36:18;;;;;;;;;;;2.80;99.90;;;;;;5015143;28;19929;-80
2021/12/01 06:38:45;;;;;;;;;;;2.70;99.90;;;;;;5033808;28;19925;-80
2021/12/01 06:41:14;;;;;;;;;;;2.80;99.90;;;;;;5027834;28;19932;-80
2021/12/01 06:43:41;;;;;;;;;;;2.80;99.90;;;;;;5026386;28;19933;-81
2021/12/01 06:46:08;;;;;;;;;;;2.80;99.90;;;;;;5013642;28;19933;-80
2021/12/01 06:48:35;;;;;;;;;;;2.80;99.90;;;;;;5019095;28;19925;-81
2021/12/01 06:51:02;;;;;;;;;;;2.70;99.90;;;;;;5021760;28;19941;-81
2021/12/01 06:53:30;;;;;;;;;;;2.70;99.90;;;;;;5021349;28;20016;-80
2021/12/01 06:55:57;;;;;;;;;;;2.80;99.90;;;;;;5026585;28;19932;-81
2021/12/01 06:58:26;;;;;;;;;;;2.80;99.90;;;;;;5031245;28;20368;-80
2021/12/01 07:00:53;;;;;;;;;;;2.80;99.90;;;;;;5024865;28;20303;-80
2021/12/01 07:03:21;;;;;;;;;;;2.80;99.90;;;;;;5026116;28;20390;-81
2021/12/01 07:05:48;;;;;;;;;;;2.80;99.90;;;;;;5029708;28;19932;-81
2021/12/01 07:08:18;;;;;;;;;;;2.80;99.90;;;;;;5019939;28;20276;-80
2021/12/01 07:10:45;;;;;;;;;;;2.80;99.90;;;;;;5029365;28;19987;-80
2021/12/01 07:13:12;;;;;;;;;;;2.70;99.90;;;;;;5027580;28;20406;-80
2021/12/01 07:15:41;;;;;;;;;;;2.70;99.90;;;;;;5027243;28;19929;-81
2021/12/01 07:18:09;;;;;;;;;;;2.80;99.90;;;;;;5020719;28;19931;-81
2021/12/01 07:20:36;;;;;;;;;;;2.80;99.90;;;;;;5033894;28;19935;-81
2021/12/01 07:23:04;;;;;;;;;;;2.80;99.90;;;;;;5058047;28;20313;-81
2021/12/01 07:25:32;;;;;;;;;;;2.80;99.90;;;;;;5019011;28;19932;-80
2021/12/01 07:27:59;;;;;;;;;;;2.80;99.90;;;;;;5022387;28;20403;-81
2021/12/01 07:30:26;;;;;;;;;;;2.80;99.90;;;;;;5026704;28;19925;-80
2021/12/01 07:32:56;;;;;;;;;;;2.80;99.90;;;;;;5024396;28;20314;-81
2021/12/01 07:35:23;;;;;;;;;;;2.80;99.90;;;;;;5016184;28;19926;-80
2021/12/01 07:37:50;;;;;;;;;;;2.80;99.90;;;;;;5026804;28;19951;-81
2021/12/01 07:40:17;;;;;;;;;;;2.80;99.90;;;;;;5022816;28;19961;-80
2021/12/01 07:42:44;;;;;;;;;;;2.80;99.90;;;;;;5020291;28;19965;-80
2021/12/01 07:45:12;;;;;;;;;;;2.80;99.90;;;;;;5044428;28;19929;-81
2021/12/01 07:47:40;;;;;;;;;;;2.80;99.90;;;;;;5019628;28;20025;-80
2021/12/01 07:50:09;;;;;;;;;;;2.80;99.90;;;;;;5021517;28;19925;-80
2021/12/01 07:52:38;;;;;;;;;;;2.80;99.90;;;;;;5022532;28;19925;-80
2021/12/01 07:55:07;;;;;;;;;;;2.80;99.90;;;;;;5025940;28;20031;-80
2021/12/01 07:57:35;;;;;;;;;;;2.80;99.90;;;;;;5061880;28;19925;-80
2021/12/01 08:00:04;;;;;;;;;;;2.80;99.90;;;;;;5025336;28;19940;-80
2021/12/01 08:02:32;;;;;;;;;;;2.80;99.90;;;;;;5031150;28;20466;-80
2021/12/01 08:04:59;;;;;;;;;;;2.80;99.90;;;;;;5027781;28;19956;-80
2021/12/01 08:07:28;;;;;;;;;;;2.80;99.90;;;;;;5024380;28;19929;-80
2021/12/01 08:09:55;;;;;;;;;;;2.80;99.90;;;;;;5028183;28;20378;-80
2021/12/01 08:12:22;;;;;;;;;;;2.80;99.90;;;;;;5031764;28;19948;-81
2021/12/01 08:14:49;;;;;;;;;;;2.80;99.90;;;;;;5029392;28;19933;-80
2021/12/01 08:17:17;;;;;;;;;;;2.80;99.90;;;;;;5027627;28;19933;-81
2021/12/01 08:19:44;;;;;;;;;;;2.80;99.90;;;;;;5031253;28;19929;-80
2021/12/01 08:22:11;;;;;;;;;;;2.90;99.90;;;;;;5029680;28;19932;-80
2021/12/01 08:24:39;;;;;;;;;;;2.90;99.90;;;;;;5032316;28;20462;-80
2021/12/01 08:27:06;;;;;;;;;;;2.80;99.90;;;;;;5030499;28;19952;-81
2021/12/01 08:29:33;;;;;;;;;;;2.90;99.90;;;;;;5030173;28;20597;-81
2021/12/01 08:32:01;;;;;;;;;;;2.90;99.90;;;;;;5033467;28;19926;-81
2021/12/01 08:34:28;;;;;;;;;;;2.90;99.90;;;;;;5025827;28;19925;-80
2021/12/01 08:36:57;;;;;;;;;;;2.80;99.90;;;;;;5052346;28;19931;-80
2021/12/01 08:39:24;;;;;;;;;;;2.90;99.90;;;;;;5030619;28;20401;-80
2021/12/01 08:41:52;;;;;;;;;;;2.90;99.90;;;;;;5029031;28;19995;-80
2021/12/01 08:44:20;;;;;;;;;;;2.90;99.90;;;;;;5030253;28;20418;-80
2021/12/01 08:46:47;;;;;;;;;;;2.90;99.90;;;;;;5021510;28;19925;-80
2021/12/01 08:49:14;;;;;;;;;;;2.80;99.90;;;;;;5022928;28;19929;-80
2021/12/01 08:51:42;;;;;;;;;;;2.90;99.90;;;;;;5027353;28;19926;-80
2021/12/01 08:54:13;;;;;;;;;;;2.90;99.90;;;;;;5059384;28;20421;-80
2021/12/01 08:56:42;;;;;;;;;;;2.90;99.90;;;;;;5028656;28;19932;-81
2021/12/01 08:59:12;;;;;;;;;;;2.90;99.90;;;;;;5035035;28;19925;-80
2021/12/01 09:01:40;;;;;;;;;;;2.90;99.90;;;;;;5029582;28;19979;-80
2021/12/01 09:04:07;;;;;;;;;;;3.00;99.90;;;;;;5021773;28;19933;-80
2021/12/01 09:06:34;;;;;;;;;;;2.90;99.90;;;;;;5022815;28;19929;-80
2021/12/01 09:09:02;;;;;;;;;;;3.00;99.90;;;;;;5029639;28;19925;-80
2021/12/01 09:11:29;;;;;;;;;;;3.00;99.90;;;;;;5032182;28;20334;-80
2021/12/01 09:13:56;;;;;;;;;;;3.00;99.90;;;;;;5019106;28;20019;-80
2021/12/01 09:16:25;;;;;;;;;;;3.10;99.90;;;;;;5033727;28;19925;-81
2021/12/01 09:18:53;;;;;;;;;;;3.00;99.90;;;;;;5026898;28;19925;-81
2021/12/01 09:21:21;;;;;;;;;;;3.10;99.90;;;;;;5028506;28;19925;-80
2021/12/01 09:23:48;;;;;;;;;;;3.10;99.90;;;;;;5020800;28;19925;-80
2021/12/01 09:26:15;;;;;;;;;;;3.10;99.90;;;;;;5032978;28;19960;-80
2021/12/01 09:28:43;;;;;;;;;;;3.10;99.90;;;;;;5024998;28;20012;-80
2021/12/01 09:31:10;;;;;;;;;;;3.10;99.90;;;;;;5018540;28;19940;-80
2021/12/01 09:33:39;;;;;;;;;;;3.20;99.90;;;;;;5024786;28;19987;-80
2021/12/01 09:36:06;;;;;;;;;;;3.10;99.90;;;;;;5030279;28;19931;-80
2021/12/01 09:38:33;;;;;;;;;;;3.20;99.90;;;;;;5027269;28;20398;-80
2021/12/01 09:41:00;;;;;;;;;;;3.20;99.90;;;;;;5035283;28;20334;-80
2021/12/01 09:43:31;;;;;;;;;;;3.20;99.90;;;;;;5029074;28;19925;-80
2021/12/01 09:46:00;;;;;;;;;;;3.20;99.90;;;;;;5031725;28;19925;-80
2021/12/01 09:48:27;;;;;;;;;;;3.30;99.90;;;;;;5039868;28;20042;-81
2021/12/01 09:50:56;;;;;;;;;;;3.30;99.90;;;;;;5045688;28;20248;-80
2021/12/01 09:53:23;;;;;;;;;;;3.30;99.90;;;;;;5031438;28;19948;-80
2021/12/01 09:55:50;;;;;;;;;;;3.40;99.90;;;;;;5032892;28;20022;-80
2021/12/01 09:58:18;;;;;;;;;;;3.40;99.90;;;;;;5030110;28;19925;-80
2021/12/01 10:00:47;;;;;;;;;;;3.40;99.90;;;;;;5062663;28;20417;-79
2021/12/01 10:03:14;;;;;;;;;;;3.40;99.90;;;;;;5030284;28;19931;-79
2021/12/01 10:05:59;;;;;;;;;;;3.40;99.90;;;;;;5025086;28;19925;-80
2021/12/01 10:08:28;;;;;;;;;;;3.40;99.90;;;;;;5021665;28;19926;-79
2021/12/01 10:10:59;;;;;;;;;;;3.40;99.90;;;;;;5030379;28;19929;-79
2021/12/01 10:13:27;;;;;;;;;;;3.40;99.90;;;;;;5023662;28;19925;-80
2021/12/01 10:15:56;;;;;;;;;;;3.40;99.90;;;;;;5022298;28;19956;-80
2021/12/01 10:18:23;;;;;;;;;;;3.50;99.90;;;;;;5021581;28;20417;-80
2021/12/01 10:21:04;;;;;;;;;;;3.50;99.90;;;;;;5018756;28;19925;-81
2021/12/01 10:23:32;;;;;;;;;;;3.50;99.90;;;;;;5021268;28;19964;-81
2021/12/01 10:26:10;;;;;;;;;;;3.50;99.90;;;;;;5028808;28;19925;-80
2021/12/01 10:28:38;;;;;;;;;;;3.50;99.90;;;;;;5019448;28;20016;-79
2021/12/01 10:31:05;;;;;;;;;;;3.50;99.90;;;;;;5019619;28;19987;-79
2021/12/01 10:33:32;;;;;;;;;;;3.50;99.90;;;;;;5016085;28;19940;-80
2021/12/01 10:36:00;;;;;;;;;;;3.60;99.90;;;;;;5014423;28;19932;-81
2021/12/01 10:38:27;;;;;;;;;;;3.50;99.90;;;;;;5025028;28;19925;-80
2021/12/01 10:41:06;;;;;;;;;;;3.60;99.90;;;;;;5025221;28;20306;-79
2021/12/01 10:43:38;;;;;;;;;;;3.60;99.90;;;;;;5028205;28;19932;-79
2021/12/01 10:46:09;;;;;;;;;;;3.60;99.90;;;;;;5045847;28;20052;-79
2021/12/01 10:48:36;;;;;;;;;;;3.60;99.90;;;;;;5025630;28;19929;-80
2021/12/01 10:51:04;;;;;;;;;;;3.60;99.90;;;;;;5018146;28;20314;-79
2021/12/01 10:53:31;;;;;;;;;;;3.60;99.90;;;;;;5021162;28;20016;-79
2021/12/01 10:55:59;;;;;;;;;;;3.70;99.90;;;;;;5013893;28;20044;-79
2021/12/01 10:58:33;;;;;;;;;;;3.70;99.90;;;;;;5058415;28;20307;-80
2021/12/01 11:01:02;;;;;;;;;;;3.70;99.90;;;;;;5020772;28;19925;-80
2021/12/01 11:03:30;;;;;;;;;;;3.70;99.90;;;;;;5026981;28;19936;-79
2021/12/01 11:05:58;;;;;;;;;;;3.70;99.90;;;;;;5022757;28;20438;-80
2021/12/01 11:08:26;;;;;;;;;;;3.80;99.90;;;;;;5023018;28;20395;-80
2021/12/01 11:10:53;;;;;;;;;;;3.80;99.90;;;;;;5021258;28;19931;-80
2021/12/01 11:13:21;;;;;;;;;;;3.80;99.90;;;;;;5026025;28;19925;-80
2021/12/01 11:15:53;;;;;;;;;;;3.80;99.90;;;;;;5019776;28;20234;-79
2021/12/01 11:18:21;;;;;;;;;;;3.80;99.90;;;;;;5021677;28;19925;-81
2021/12/01 11:20:49;;;;;;;;;;;3.80;99.90;;;;;;5016406;28;20391;-79
2021/12/01 11:23:22;;;;;;;;;;;3.80;99.90;;;;;;5019379;28;19933;-80
2021/12/01 11:25:51;;;;;;;;;;;3.90;99.90;;;;;;5026442;28;20391;-79
2021/12/01 11:28:19;;;;;;;;;;;3.90;99.90;;;;;;5020166;28;20375;-80
2021/12/01 11:30:46;;;;;;;;;;;3.90;99.90;;;;;;5015170;28;19934;-80
2021/12/01 11:33:17;;;;;;;;;;;3.90;99.90;;;;;;5024611;28;20482;-79
2021/12/01 11:35:46;;;;;;;;;;;3.90;99.90;;;;;;5026633;28;19933;-80
2021/12/01 11:38:14;;;;;;;;;;;4.00;99.90;;;;;;5032074;28;19928;-80
2021/12/01 11:40:41;;;;;;;;;;;4.00;99.90;;;;;;5029465;28;19933;-80
2021/12/01 11:43:10;;;;;;;;;;;4.00;99.90;;;;;;5029600;28;19925;-80
2021/12/01 11:45:38;;;;;;;;;;;4.00;99.90;;;;;;5017752;28;19940;-80
2021/12/01 11:48:09;;;;;;;;;;;4.00;99.90;;;;;;5053776;28;19952;-80
2021/12/01 11:50:55;;;;;;;;;;;4.00;99.90;;;;;;5020203;28;19930;-80
2021/12/01 11:53:22;;;;;;;;;;;4.00;99.90;;;;;;5029373;28;19932;-80
2021/12/01 11:55:50;;;;;;;;;;;4.00;99.90;;;;;;5060398;28;20349;-81
2021/12/01 11:58:36;;;;;;;;;;;4.10;99.90;;;;;;5027775;28;19936;-80
2021/12/01 12:01:03;;;;;;;;;;;4.00;99.90;;;;;;5023612;28;19932;-80
2021/12/01 12:03:31;;;;;;;;;;;4.00;99.90;;;;;;5022631;28;19948;-80
2021/12/01 12:06:19;;;;;;;;;;;4.10;99.90;;;;;;5030457;28;19925;-81
2021/12/01 12:09:07;;;;;;;;;;;4.10;99.90;;;;;;5018003;28;20398;-81
2021/12/01 12:11:35;;;;;;;;;;;4.10;99.90;;;;;;5016066;28;19965;-80
2021/12/01 12:14:04;;;;;;;;;;;4.20;99.90;;;;;;5031212;28;19931;-80
2021/12/01 12:16:31;;;;;;;;;;;4.20;99.90;;;;;;5027592;28;20420;-80
2021/12/01 12:18:59;;;;;;;;;;;4.20;99.90;;;;;;5033219;28;19925;-79
2021/12/01 12:21:36;;;;;;;;;;;4.30;99.90;;;;;;5035292;28;19929;-80
2021/12/01 12:24:04;;;;;;;;;;;4.30;99.90;;;;;;5032723;28;19925;-80
2021/12/01 12:26:35;;;;;;;;;;;4.30;99.90;;;;;;5022028;28;19939;-80
2021/12/01 12:29:06;;;;;;;;;;;4.30;99.90;;;;;;5033244;23;19909;-89
2021/12/01 12:31:33;;;;;;;;;;;4.30;99.90;;;;;;4998379;28;19934;-89
2021/12/01 12:34:03;;;;;;;;;;;4.30;99.90;;;;;;5014279;28;19934;-89
2021/12/01 12:36:40;;;;;;;;;;;4.40;99.90;;;;;;5014950;28;19941;-89
2021/12/01 12:39:09;;;;;;;;;;;4.40;99.90;;;;;;5009961;28;19937;-88
2021/12/01 12:41:54;;;;;;;;;;;4.40;99.90;;;;;;5020608;28;19937;-87
2021/12/01 12:44:31;;;;;;;;;;;4.40;99.90;;;;;;5013270;28;19980;-86
2021/12/01 12:47:01;;;;;;;;;;;4.40;99.90;;;;;;5017066;28;19925;-87
2021/12/01 12:49:36;;;;;;;;;;;4.50;99.90;;;;;;5015495;28;19956;-88
2021/12/01 12:52:19;;;;;;;;;;;4.50;99.90;;;;;;5017278;28;19926;-88
2021/12/01 12:54:47;;;;;;;;;;;4.50;99.90;;;;;;5017651;28;19952;-89
2021/12/01 12:57:16;;;;;;;;;;;4.50;99.90;;;;;;5017239;28;19933;-89
2021/12/01 12:59:45;;;;;;;;;;;4.60;99.90;;;;;;5016856;28;20334;-90
2021/12/01 13:02:31;;;;;;;;;;;4.50;99.90;;;;;;5022762;28;19948;-88
2021/12/01 13:05:00;;;;;;;;;;;4.60;99.90;;;;;;5013377;28;20288;-88
2021/12/01 13:07:52;;;;;;;;;;;4.60;99.90;;;;;;5049238;28;19926;-90
2021/12/01 13:10:21;;;;;;;;;;;4.60;99.90;;;;;;5002646;28;19937;-88
2021/12/01 13:12:56;;;;;;;;;;;4.60;99.90;;;;;;5023188;28;19949;-88
2021/12/01 13:15:28;;;;;;;;;;;4.60;99.90;;;;;;5012759;28;19950;-88
2021/12/01 13:17:57;;;;;;;;;;;4.70;99.90;;;;;;5018539;28;19925;-88
2021/12/01 13:20:25;;;;;;;;;;;4.70;99.90;;;;;;5016986;28;19933;-90
2021/12/01 13:23:14;;;;;;;;;;;4.70;99.90;;;;;;5014820;28;19995;-88
2021/12/01 13:25:44;;;;;;;;;;;4.70;99.90;;;;;;5016653;28;19926;-88
2021/12/01 13:28:12;;;;;;;;;;;4.70;99.90;;;;;;5021093;28;19925;-87
2021/12/01 13:30:55;;;;;;;;;;;4.80;99.90;;;;;;5022413;28;19926;-88
2021/12/01 13:33:24;;;;;;;;;;;4.70;99.90;;;;;;5019655;28;19934;-88
2021/12/01 13:35:51;;;;;;;;;;;4.80;99.90;;;;;;5021479;28;19930;-88
2021/12/01 13:38:29;;;;;;;;;;;4.80;99.90;;;;;;5021905;28;19932;-88
2021/12/01 13:41:05;;;;;;;;;;;4.80;99.90;;;;;;5014601;28;19926;-89
2021/12/01 13:43:32;;;;;;;;;;;4.80;99.90;;;;;;5016346;28;20246;-88
2021/12/01 13:46:01;;;;;;;;;;;4.90;99.90;;;;;;5013449;28;19936;-88
2021/12/01 13:48:30;;;;;;;;;;;4.90;99.90;;;;;;5022596;28;19932;-88
2021/12/01 13:51:07;;;;;;;;;;;4.90;99.90;;;;;;5024893;28;20269;-88
2021/12/01 13:53:34;;;;;;;;;;;4.90;99.90;;;;;;5006121;28;20021;-89
2021/12/01 13:56:07;;;;;;;;;;;4.90;99.90;;;;;;5024244;28;19925;-88
2021/12/01 13:58:34;;;;;;;;;;;4.90;99.90;;;;;;5018039;28;19936;-88
2021/12/01 14:01:05;;;;;;;;;;;4.90;99.90;;;;;;5014007;28;19926;-87
2021/12/01 14:03:34;;;;;;;;;;;5.00;99.90;;;;;;5023766;28;19932;-88
2021/12/01 14:06:06;;;;;;;;;;;4.90;99.90;;;;;;5020068;28;19929;-89
2021/12/01 14:08:34;;;;;;;;;;;5.00;99.90;;;;;;5018415;28;19925;-88
2021/12/01 14:11:05;;;;;;;;;;;5.00;99.90;;;;;;5013778;28;19933;-87
2021/12/01 14:13:33;;;;;;;;;;;5.00;99.90;;;;;;5015151;28;20513;-88
2021/12/01 14:16:00;;;;;;;;;;;5.00;99.90;;;;;;5024539;28;19960;-87
2021/12/01 14:18:28;;;;;;;;;;;5.00;99.90;;;;;;5021966;28;20330;-88
2021/12/01 14:21:09;;;;;;;;;;;5.00;99.90;;;;;;5021366;28;20296;-89
2021/12/01 14:23:38;;;;;;;;;;;5.00;99.90;;;;;;5022677;28;19929;-88
2021/12/01 14:26:05;;;;;;;;;;;5.00;99.90;;;;;;5015376;28;19963;-88
2021/12/01 14:28:32;;;;;;;;;;;5.00;99.90;;;;;;5020284;28;19949;-88
2021/12/01 14:31:00;;;;;;;;;;;5.00;99.90;;;;;;5021707;28;19936;-88
2021/12/01 14:33:27;;;;;;;;;;;5.00;99.90;;;;;;5021543;28;19925;-88
2021/12/01 14:36:00;;;;;;;;;;;5.00;99.90;;;;;;5016363;28;19925;-89
2021/12/01 14:38:30;;;;;;;;;;;5.00;99.90;;;;;;5019336;28;19925;-89
2021/12/01 14:41:00;;;;;;;;;;;5.10;99.90;;;;;;5013971;28;19972;-88
2021/12/01 14:43:27;;;;;;;;;;;5.10;99.90;;;;;;5020397;28;19926;-89
2021/12/01 14:45:54;;;;;;;;;;;5.10;99.90;;;;;;5018928;28;19933;-90